createdAt,value
2018-05-19T00:00:58.876Z,0
2018-05-19T00:01:59.229Z,0
2018-05-19T00:02:59.199Z,0
2018-05-19T00:03:58.948Z,0
2018-05-19T00:04:59.229Z,0
2018-05-19T00:07:28.586Z,0
2018-05-19T00:07:59.286Z,0
2018-05-19T00:08:59.343Z,0
2018-05-19T00:09:59.062Z,0
2018-05-19T00:10:59.113Z,0
2018-05-19T00:11:59.362Z,0
2018-05-19T00:12:59.419Z,0
2018-05-19T00:13:59.403Z,0
2018-05-19T00:14:59.466Z,0
2018-05-19T00:15:58.690Z,0
2018-05-19T00:16:59.243Z,0
2018-05-19T00:17:59.494Z,0
2018-05-19T00:18:59.515Z,0
2018-05-19T00:19:59.573Z,0
2018-05-19T00:20:59.588Z,0
2018-05-19T00:21:59.104Z,0
2018-05-19T00:23:14.007Z,0
2018-05-19T00:23:59.679Z,0
2018-05-19T00:24:59.393Z,0
2018-05-19T00:25:59.701Z,0
2018-05-19T00:26:59.692Z,0
2018-05-19T00:27:59.778Z,0
2018-05-19T00:29:14.422Z,0
2018-05-19T00:29:59.530Z,0
2018-05-19T00:30:59.793Z,0
2018-05-19T00:32:59.844Z,0
2018-05-19T00:33:59.889Z,0
2018-05-19T00:34:59.875Z,0
2018-05-19T00:35:59.922Z,0
2018-05-19T00:36:59.940Z,0
2018-05-19T00:37:59.989Z,0
2018-05-19T00:39:14.651Z,0
2018-05-19T00:39:59.993Z,0
2018-05-19T00:41:00.034Z,0
2018-05-19T00:42:14.428Z,0
2018-05-19T00:42:59.883Z,0
2018-05-19T00:44:00.084Z,0
2018-05-19T00:44:59.877Z,0
2018-05-19T00:45:59.886Z,0
2018-05-19T00:46:59.893Z,0
2018-05-19T00:48:00.174Z,0
2018-05-19T00:49:00.186Z,0
2018-05-19T00:50:14.895Z,0
2018-05-19T00:51:00.234Z,0
2018-05-19T00:52:14.674Z,0
2018-05-19T00:53:00.316Z,0
2018-05-19T00:54:00.325Z,0
2018-05-19T00:55:29.635Z,0
2018-05-19T00:57:00.125Z,0
2018-05-19T00:58:00.123Z,0
2018-05-19T00:59:00.445Z,0
2018-05-19T01:00:00.445Z,0
2018-05-19T01:00:59.936Z,0
2018-05-19T01:01:59.990Z,0
2018-05-19T01:03:00.275Z,0
2018-05-19T01:04:00.532Z,0
2018-05-19T01:05:15.207Z,0
2018-05-19T01:06:00.571Z,0
2018-05-19T01:07:00.626Z,0
2018-05-19T01:08:15.264Z,0
2018-05-19T01:09:00.409Z,0
2018-05-19T01:10:15.335Z,0
2018-05-19T01:11:00.691Z,0
2018-05-19T01:12:00.713Z,0
2018-05-19T01:13:00.764Z,0
2018-05-19T01:14:15.142Z,0
2018-05-19T01:15:15.457Z,0
2018-05-19T01:16:00.779Z,0
2018-05-19T01:17:00.814Z,0
2018-05-19T01:18:00.592Z,0
2018-05-19T01:19:00.881Z,0
2018-05-19T01:20:00.925Z,0
2018-05-19T01:21:00.921Z,0
2018-05-19T01:22:15.336Z,0
2018-05-19T01:23:00.686Z,0
2018-05-19T01:24:15.689Z,0
2018-05-19T01:25:01.087Z,0
2018-05-19T01:26:01.033Z,0
2018-05-19T01:27:01.030Z,0
2018-05-19T01:29:01.077Z,0
2018-05-19T01:30:15.354Z,0
2018-05-19T01:31:00.929Z,0
2018-05-19T01:32:01.263Z,0
2018-05-19T01:33:01.166Z,0
2018-05-19T01:34:15.845Z,0
2018-05-19T01:35:01.059Z,0
2018-05-19T01:36:15.629Z,0
2018-05-19T01:37:01.120Z,0
2018-05-19T01:38:01.023Z,0
2018-05-19T01:39:01.341Z,0
2018-05-19T01:40:01.312Z,0
2018-05-19T01:41:01.364Z,0
2018-05-19T01:42:16.029Z,0
2018-05-19T01:43:16.060Z,0
2018-05-19T01:44:01.447Z,0
2018-05-19T01:45:01.424Z,0
2018-05-19T01:46:01.495Z,0
2018-05-19T01:47:01.478Z,0
2018-05-19T01:48:01.251Z,0
2018-05-19T01:49:01.265Z,0
2018-05-19T01:50:01.321Z,0
2018-05-19T01:51:01.594Z,0
2018-05-19T01:52:01.596Z,0
2018-05-19T01:53:01.612Z,0
2018-05-19T01:54:01.669Z,0
2018-05-19T01:55:01.656Z,0
2018-05-19T01:56:01.700Z,0
2018-05-19T01:57:01.687Z,0
2018-05-19T01:59:01.494Z,0
2018-05-19T02:01:01.562Z,0
2018-05-19T02:02:01.809Z,0
2018-05-19T02:03:01.588Z,0
2018-05-19T02:04:01.588Z,0
2018-05-19T02:05:01.913Z,0
2018-05-19T02:06:01.891Z,0
2018-05-19T02:07:01.690Z,0
2018-05-19T02:08:01.691Z,0
2018-05-19T02:09:16.648Z,0
2018-05-19T02:10:01.717Z,0
2018-05-19T02:11:01.751Z,0
2018-05-19T02:13:02.063Z,0
2018-05-19T02:15:16.510Z,0
2018-05-19T02:17:16.296Z,0
2018-05-19T02:18:02.155Z,0
2018-05-19T02:19:01.672Z,0
2018-05-19T02:20:02.234Z,0
2018-05-19T02:21:16.633Z,0
2018-05-19T02:22:01.992Z,0
2018-05-19T02:23:02.044Z,0
2018-05-19T02:24:02.287Z,0
2018-05-19T02:25:16.733Z,0
2018-05-19T02:26:02.101Z,0
2018-05-19T02:27:02.122Z,0
2018-05-19T02:28:02.113Z,0
2018-05-19T02:29:02.136Z,4
2018-05-19T02:31:02.574Z,0
2018-05-19T02:32:02.576Z,0
2018-05-19T02:33:01.982Z,4
2018-05-19T02:34:02.287Z,4
2018-05-19T02:35:02.266Z,4
2018-05-19T02:36:16.702Z,4
2018-05-19T02:37:02.170Z,4
2018-05-19T02:38:02.635Z,4
2018-05-19T02:39:02.696Z,4
2018-05-19T02:40:17.305Z,8
2018-05-19T02:41:02.705Z,8
2018-05-19T02:42:02.686Z,12
2018-05-19T02:43:02.736Z,12
2018-05-19T02:44:02.735Z,12
2018-05-19T02:45:17.438Z,16
2018-05-19T02:46:02.813Z,16
2018-05-19T02:47:02.810Z,20
2018-05-19T02:48:02.828Z,20
2018-05-19T02:50:02.600Z,24
2018-05-19T02:51:02.674Z,24
2018-05-19T02:52:02.639Z,32
2018-05-19T02:53:02.948Z,44
2018-05-19T02:54:02.957Z,52
2018-05-19T02:55:03.020Z,64
2018-05-19T02:56:03.027Z,76
2018-05-19T02:57:03.036Z,88
2018-05-19T02:58:03.065Z,100
2018-05-19T02:59:17.714Z,112
2018-05-19T03:00:03.120Z,120
2018-05-19T03:01:02.839Z,124
2018-05-19T03:02:03.162Z,128
2018-05-19T03:03:03.177Z,132
2018-05-19T03:05:03.225Z,144
2018-05-19T03:06:03.208Z,156
2018-05-19T03:08:17.911Z,208
2018-05-19T03:09:03.325Z,232
2018-05-19T03:11:03.348Z,292
2018-05-19T03:12:03.097Z,316
2018-05-19T03:13:03.370Z,336
2018-05-19T03:14:03.161Z,352
2018-05-19T03:15:02.941Z,364
2018-05-19T03:16:03.456Z,404
2018-05-19T03:17:18.387Z,508
2018-05-19T03:18:03.231Z,580
2018-05-19T03:19:03.292Z,668
2018-05-19T03:20:03.557Z,728
2018-05-19T03:21:03.549Z,788
2018-05-19T03:22:18.244Z,864
2018-05-19T03:23:03.329Z,912
2018-05-19T03:24:03.673Z,984
2018-05-19T03:25:03.621Z,1084
2018-05-19T03:26:03.421Z,1204
2018-05-19T03:27:18.349Z,1384
2018-05-19T03:28:03.723Z,1508
2018-05-19T03:29:03.729Z,1664
2018-05-19T03:30:03.773Z,1800
2018-05-19T03:31:03.533Z,1928
2018-05-19T03:32:03.278Z,2052
2018-05-19T03:33:18.492Z,2212
2018-05-19T03:34:18.487Z,2340
2018-05-19T03:35:03.874Z,2436
2018-05-19T03:36:03.801Z,2568
2018-05-19T03:37:03.619Z,2696
2018-05-19T03:38:03.687Z,2828
2018-05-19T03:39:03.943Z,2960
2018-05-19T03:40:03.726Z,3100
2018-05-19T03:41:03.710Z,3240
2018-05-19T03:42:03.765Z,3384
2018-05-19T03:43:03.771Z,3528
2018-05-19T03:45:03.565Z,3792
2018-05-19T03:46:03.835Z,3900
2018-05-19T03:47:03.842Z,4000
2018-05-19T03:48:03.886Z,4112
2018-05-19T03:49:18.826Z,4284
2018-05-19T03:50:04.302Z,4404
2018-05-19T03:51:03.933Z,4552
2018-05-19T03:52:03.989Z,4724
2018-05-19T03:53:04.232Z,4932
2018-05-19T03:54:04.436Z,5208
2018-05-19T03:55:04.313Z,5404
2018-05-19T03:56:04.083Z,5464
2018-05-19T03:57:03.820Z,5592
2018-05-19T03:58:04.111Z,5636
2018-05-19T03:59:04.367Z,5712
2018-05-19T04:00:04.137Z,5820
2018-05-19T04:01:04.437Z,5836
2018-05-19T04:02:04.471Z,5664
2018-05-19T04:03:04.234Z,5612
2018-05-19T04:04:03.965Z,5632
2018-05-19T04:05:19.183Z,5724
2018-05-19T04:06:04.267Z,5824
2018-05-19T04:07:04.569Z,5928
2018-05-19T04:08:04.577Z,6140
2018-05-19T04:09:04.370Z,6352
2018-05-19T04:10:04.360Z,6508
2018-05-19T04:11:19.318Z,6748
2018-05-19T04:12:19.325Z,6884
2018-05-19T04:13:04.463Z,6952
2018-05-19T04:14:19.416Z,7036
2018-05-19T04:15:04.501Z,6964
2018-05-19T04:16:04.748Z,6896
2018-05-19T04:17:04.514Z,6684
2018-05-19T04:18:04.564Z,6568
2018-05-19T04:19:04.846Z,6424
2018-05-19T04:20:19.533Z,6300
2018-05-19T04:22:04.927Z,5844
2018-05-19T04:23:04.906Z,5620
2018-05-19T04:24:04.948Z,5520
2018-05-19T04:25:04.709Z,5416
2018-05-19T04:26:19.407Z,4940
2018-05-19T04:27:05.039Z,4448
2018-05-19T04:28:05.025Z,3972
2018-05-19T04:29:19.469Z,3956
2018-05-19T04:30:05.070Z,4064
2018-05-19T04:31:04.846Z,4032
2018-05-19T04:32:05.130Z,3988
2018-05-19T04:33:19.813Z,3972
2018-05-19T04:34:05.201Z,3820
2018-05-19T04:35:04.915Z,3628
2018-05-19T04:36:04.976Z,3684
2018-05-19T04:37:04.980Z,4092
2018-05-19T04:38:05.266Z,4604
2018-05-19T04:39:05.056Z,4992
2018-05-19T04:40:19.688Z,4948
2018-05-19T04:41:04.850Z,4624
2018-05-19T04:42:05.102Z,4000
2018-05-19T04:43:04.865Z,3428
2018-05-19T04:44:04.895Z,3164
2018-05-19T04:45:20.058Z,3088
2018-05-19T04:46:05.287Z,3144
2018-05-19T04:47:05.202Z,3220
2018-05-19T04:48:05.504Z,3272
2018-05-19T04:49:05.496Z,3320
2018-05-19T04:50:05.657Z,3856
2018-05-19T04:51:05.297Z,6160
2018-05-19T04:52:20.232Z,7772
2018-05-19T04:53:05.089Z,14336
2018-05-19T04:54:05.648Z,20672
2018-05-19T04:55:04.854Z,19840
2018-05-19T04:56:05.679Z,17344
2018-05-19T04:57:05.412Z,21408
2018-05-19T04:58:05.763Z,19360
2018-05-19T04:59:05.463Z,21344
2018-05-19T05:01:05.533Z,17280
2018-05-19T05:02:20.461Z,18304
2018-05-19T05:03:20.481Z,22816
2018-05-19T05:04:05.783Z,25408
2018-05-19T05:05:05.856Z,26848
2018-05-19T05:06:05.924Z,25280
2018-05-19T05:07:05.914Z,24576
2018-05-19T05:08:20.603Z,26080
2018-05-19T05:09:05.962Z,27008
2018-05-19T05:10:05.772Z,27936
2018-05-19T05:11:06.036Z,30336
2018-05-19T05:12:06.046Z,34752
2018-05-19T05:13:06.058Z,35168
2018-05-19T05:14:06.349Z,39008
2018-05-19T05:15:05.869Z,45984
2018-05-19T05:16:05.878Z,47392
2018-05-19T05:17:06.196Z,47872
2018-05-19T05:18:06.182Z,45056
2018-05-19T05:19:20.620Z,51328
2018-05-19T05:21:05.987Z,54304
2018-05-19T05:22:20.963Z,54560
2018-05-19T05:23:06.050Z,52448
2018-05-19T05:24:21.011Z,50976
2018-05-19T05:25:06.378Z,53248
2018-05-19T05:26:06.153Z,58336
2018-05-19T05:27:06.380Z,58752
2018-05-19T05:28:06.182Z,58656
2018-05-19T05:29:06.471Z,55360
2018-05-19T05:31:06.256Z,56896
2018-05-19T05:32:06.579Z,58144
2018-05-19T05:33:06.331Z,55840
2018-05-19T05:34:06.370Z,61856
2018-05-19T05:35:06.620Z,65376
2018-05-19T05:36:07.044Z,70368
2018-05-19T05:37:06.410Z,71744
2018-05-19T05:38:06.719Z,72352
2018-05-19T05:39:06.492Z,72128
2018-05-19T05:40:21.451Z,71520
2018-05-19T05:41:06.411Z,73152
2018-05-19T05:42:06.556Z,73984
2018-05-19T05:43:06.666Z,70880
2018-05-19T05:44:21.540Z,68384
2018-05-19T05:45:06.407Z,66400
2018-05-19T05:46:06.933Z,63840
2018-05-19T05:47:06.744Z,64288
2018-05-19T05:48:21.689Z,63680
2018-05-19T05:49:21.688Z,59456
2018-05-19T05:50:06.928Z,58368
2018-05-19T05:51:06.827Z,59648
2018-05-19T05:52:07.195Z,58816
2018-05-19T05:53:07.154Z,61888
2018-05-19T05:54:07.218Z,62304
2018-05-19T05:55:21.883Z,66624
2018-05-19T05:56:07.010Z,68000
2018-05-19T05:57:07.263Z,69312
2018-05-19T05:58:07.071Z,69280
2018-05-19T05:59:07.085Z,70592
2018-05-19T06:00:06.597Z,69312
2018-05-19T06:01:07.391Z,68288
2018-05-19T06:02:06.932Z,69728
2018-05-19T06:03:06.945Z,71072
2018-05-19T06:04:07.264Z,71616
2018-05-19T06:05:07.520Z,72160
2018-05-19T06:06:22.534Z,74016
2018-05-19T06:07:07.582Z,73184
2018-05-19T06:08:07.615Z,73696
2018-05-19T06:09:07.668Z,73376
2018-05-19T06:10:07.438Z,74112
2018-05-19T06:11:07.854Z,73600
2018-05-19T06:12:07.816Z,73024
2018-05-19T06:13:07.537Z,75456
2018-05-19T06:14:07.560Z,75936
2018-05-19T06:15:07.619Z,77760
2018-05-19T06:16:07.612Z,79296
2018-05-19T06:17:07.420Z,77088
2018-05-19T06:18:07.940Z,78592
2018-05-19T06:19:08.187Z,76768
2018-05-19T06:20:07.995Z,79072
2018-05-19T06:21:07.595Z,79904
2018-05-19T06:22:08.117Z,80928
2018-05-19T06:23:07.860Z,83104
2018-05-19T06:24:08.130Z,82496
2018-05-19T06:25:08.350Z,83456
2018-05-19T06:26:08.201Z,82720
2018-05-19T06:27:22.918Z,80256
2018-05-19T06:28:08.349Z,79264
2018-05-19T06:29:07.806Z,79680
2018-05-19T06:30:08.066Z,79232
2018-05-19T06:31:08.107Z,83552
2018-05-19T06:32:23.092Z,80448
2018-05-19T06:33:08.437Z,81088
2018-05-19T06:34:08.511Z,82688
2018-05-19T06:35:08.514Z,83840
2018-05-19T06:36:23.228Z,84992
2018-05-19T06:37:08.319Z,83584
2018-05-19T06:38:08.643Z,81600
2018-05-19T06:39:08.388Z,79552
2018-05-19T06:40:22.824Z,80896
2018-05-19T06:41:08.455Z,82400
2018-05-19T06:42:09.133Z,84736
2018-05-19T06:43:23.169Z,83872
2018-05-19T06:44:08.584Z,82752
2018-05-19T06:45:08.600Z,85984
2018-05-19T06:46:23.293Z,87168
2018-05-19T06:47:08.657Z,87936
2018-05-19T06:48:23.913Z,86976
2018-05-19T06:49:09.019Z,84800
2018-05-19T06:50:09.030Z,82336
2018-05-19T06:51:09.087Z,78048
2018-05-19T06:53:08.867Z,74272
2018-05-19T06:54:23.579Z,75872
2018-05-19T06:55:08.964Z,75616
2018-05-19T06:56:08.965Z,75456
2018-05-19T06:57:09.430Z,78880
2018-05-19T06:58:09.027Z,80320
2018-05-19T06:59:24.013Z,77152
2018-05-19T07:00:08.837Z,76640
2018-05-19T07:01:24.086Z,78368
2018-05-19T07:02:09.207Z,75392
2018-05-19T07:03:09.216Z,72768
2018-05-19T07:04:09.248Z,69952
2018-05-19T07:05:09.299Z,69952
2018-05-19T07:06:09.078Z,70784
2018-05-19T07:07:24.263Z,65120
2018-05-19T07:08:09.274Z,69568
2018-05-19T07:09:09.167Z,69696
2018-05-19T07:10:09.739Z,75808
2018-05-19T07:11:09.839Z,76512
2018-05-19T07:12:09.323Z,71808
2018-05-19T07:13:09.848Z,68928
2018-05-19T07:14:09.883Z,72928
2018-05-19T07:15:24.571Z,79200
2018-05-19T07:16:09.393Z,76192
2018-05-19T07:17:09.997Z,74944
2018-05-19T07:18:09.742Z,76384
2018-05-19T07:19:09.767Z,75232
2018-05-19T07:20:09.568Z,73536
2018-05-19T07:21:10.084Z,75840
2018-05-19T07:22:10.142Z,75296
2018-05-19T07:23:10.180Z,75456
2018-05-19T07:24:10.296Z,73312
2018-05-19T07:25:10.010Z,72544
2018-05-19T07:26:10.282Z,72608
2018-05-19T07:27:10.312Z,71296
2018-05-19T07:28:10.082Z,74048
2018-05-19T07:29:09.878Z,74944
2018-05-19T07:30:24.808Z,74976
2018-05-19T07:31:10.227Z,72736
2018-05-19T07:32:10.224Z,71744
2018-05-19T07:33:24.681Z,73536
2018-05-19T07:34:10.286Z,72992
2018-05-19T07:35:10.063Z,72192
2018-05-19T07:36:10.954Z,71328
2018-05-19T07:37:10.677Z,73376
2018-05-19T07:38:10.727Z,71520
2018-05-19T07:39:10.727Z,67136
2018-05-19T07:40:10.516Z,66880
2018-05-19T07:41:10.541Z,66112
2018-05-19T07:42:10.882Z,66912
2018-05-19T07:43:10.340Z,67168
2018-05-19T07:44:10.920Z,69856
2018-05-19T07:45:10.437Z,70560
2018-05-19T07:46:10.705Z,68672
2018-05-19T07:47:10.776Z,69792
2018-05-19T07:48:11.057Z,72000
2018-05-19T07:49:11.098Z,69984
2018-05-19T07:50:11.104Z,67008
2018-05-19T07:51:11.154Z,69248
2018-05-19T07:52:11.212Z,67200
2018-05-19T07:53:11.246Z,68640
2018-05-19T07:54:10.759Z,72352
2018-05-19T07:55:11.024Z,69088
2018-05-19T07:56:10.838Z,66720
2018-05-19T07:57:11.342Z,64512
2018-05-19T07:58:11.456Z,65952
2018-05-19T07:59:11.165Z,68096
2018-05-19T08:00:11.234Z,67712
2018-05-19T08:01:11.506Z,67424
2018-05-19T08:02:25.957Z,66944
2018-05-19T08:03:11.556Z,64512
2018-05-19T08:04:11.670Z,56160
2018-05-19T08:05:11.668Z,56544
2018-05-19T08:06:11.420Z,58432
2018-05-19T08:07:26.392Z,52352
2018-05-19T08:08:11.481Z,54976
2018-05-19T08:09:11.815Z,53056
2018-05-19T08:10:11.551Z,51968
2018-05-19T08:11:26.717Z,50624
2018-05-19T08:12:11.664Z,47520
2018-05-19T08:13:11.924Z,46656
2018-05-19T08:14:11.683Z,49248
2018-05-19T08:15:11.759Z,48640
2018-05-19T08:16:26.696Z,44448
2018-05-19T08:17:12.085Z,43008
2018-05-19T08:18:26.763Z,36960
2018-05-19T08:19:12.272Z,36736
2018-05-19T08:20:12.150Z,37728
2018-05-19T08:21:11.925Z,47680
2018-05-19T08:22:12.245Z,51200
2018-05-19T08:23:12.018Z,50528
2018-05-19T08:26:12.098Z,45728
2018-05-19T08:27:12.423Z,47968
2018-05-19T08:28:12.180Z,47584
2018-05-19T08:29:12.487Z,45184
2018-05-19T08:30:12.484Z,46944
2018-05-19T08:31:12.519Z,40736
2018-05-19T08:32:12.577Z,41024
2018-05-19T08:33:12.613Z,41600
2018-05-19T08:34:27.314Z,40000
2018-05-19T08:35:13.072Z,41376
2018-05-19T08:36:12.458Z,38752
2018-05-19T08:37:12.217Z,38432
2018-05-19T08:38:12.496Z,34784
2018-05-19T08:39:27.482Z,26272
2018-05-19T08:40:12.557Z,22976
2018-05-19T08:41:12.536Z,22624
2018-05-19T08:42:12.906Z,22560
2018-05-19T08:43:27.335Z,23232
2018-05-19T08:44:12.728Z,22784
2018-05-19T08:45:27.385Z,23200
2018-05-19T08:46:13.055Z,22432
2018-05-19T08:47:13.121Z,22048
2018-05-19T08:48:13.103Z,21216
2018-05-19T08:50:27.963Z,21728
2018-05-19T08:51:27.610Z,21664
2018-05-19T08:52:13.340Z,21792
2018-05-19T08:53:27.664Z,21568
2018-05-19T08:54:27.691Z,21728
2018-05-19T08:55:13.049Z,22048
2018-05-19T08:56:13.396Z,21696
2018-05-19T08:57:13.116Z,21568
2018-05-19T08:58:13.854Z,21536
2018-05-19T08:59:13.010Z,21536
2018-05-19T09:01:12.983Z,21504
2018-05-19T09:02:13.278Z,21664
2018-05-19T09:03:13.604Z,21344
2018-05-19T09:04:13.627Z,21920
2018-05-19T09:05:28.297Z,21760
2018-05-19T09:06:13.708Z,21376
2018-05-19T09:07:13.447Z,21664
2018-05-19T09:08:13.772Z,21504
2018-05-19T09:09:13.781Z,21792
2018-05-19T09:10:13.855Z,22048
2018-05-19T09:11:28.488Z,21920
2018-05-19T09:12:13.865Z,21856
2018-05-19T09:13:14.048Z,22144
2018-05-19T09:14:14.057Z,21920
2018-05-19T09:15:28.651Z,21568
2018-05-19T09:16:14.005Z,21728
2018-05-19T09:17:14.061Z,21952
2018-05-19T09:18:14.053Z,21792
2018-05-19T09:19:14.117Z,21728
2018-05-19T09:20:14.176Z,21984
2018-05-19T09:22:14.223Z,21888
2018-05-19T09:23:14.378Z,21728
2018-05-19T09:24:14.007Z,21824
2018-05-19T09:26:29.003Z,21664
2018-05-19T09:27:13.827Z,21472
2018-05-19T09:29:14.180Z,21184
2018-05-19T09:30:14.456Z,20608
2018-05-19T09:31:29.143Z,21024
2018-05-19T09:32:14.541Z,19968
2018-05-19T09:33:14.273Z,20640
2018-05-19T09:34:14.629Z,20512
2018-05-19T09:35:14.344Z,20192
2018-05-19T09:36:14.647Z,20128
2018-05-19T09:37:29.334Z,20064
2018-05-19T09:38:14.746Z,19712
2018-05-19T09:39:14.770Z,19424
2018-05-19T09:40:14.516Z,19392
2018-05-19T09:41:14.918Z,19296
2018-05-19T09:42:14.567Z,19264
2018-05-19T09:43:29.596Z,19264
2018-05-19T09:44:14.888Z,19488
2018-05-19T09:45:14.703Z,19328
2018-05-19T09:46:14.974Z,19104
2018-05-19T09:47:15.160Z,18656
2018-05-19T09:48:15.026Z,18592
2018-05-19T09:49:15.042Z,18624
2018-05-19T09:50:14.869Z,18240
2018-05-19T09:51:14.865Z,17632
2018-05-19T09:52:15.188Z,16916
2018-05-19T09:53:29.831Z,16976
2018-05-19T09:54:15.258Z,16632
2018-05-19T09:56:15.267Z,17184
2018-05-19T09:57:15.338Z,17152
2018-05-19T09:58:15.354Z,17280
2018-05-19T09:59:15.414Z,16736
2018-05-19T10:00:15.174Z,16584
2018-05-19T10:01:15.164Z,16660
2018-05-19T10:02:15.501Z,16560
2018-05-19T10:03:29.893Z,16432
2018-05-19T10:04:29.945Z,16548
2018-05-19T10:05:15.963Z,16480
2018-05-19T10:06:15.580Z,15844
2018-05-19T10:08:15.659Z,15004
2018-05-19T10:09:29.833Z,14280
2018-05-19T10:10:15.734Z,14088
2018-05-19T10:11:30.165Z,13660
2018-05-19T10:12:15.787Z,13628
2018-05-19T10:13:15.791Z,14276
2018-05-19T10:14:15.877Z,14532
2018-05-19T10:15:15.597Z,14344
2018-05-19T10:16:15.663Z,14248
2018-05-19T10:17:16.173Z,14144
2018-05-19T10:18:15.985Z,14196
2018-05-19T10:19:15.981Z,14044
2018-05-19T10:20:16.022Z,14004
2018-05-19T10:21:16.043Z,14240
2018-05-19T10:22:30.763Z,14240
2018-05-19T10:23:16.728Z,14412
2018-05-19T10:24:16.134Z,14272
2018-05-19T10:25:30.849Z,14480
2018-05-19T10:26:30.587Z,14508
2018-05-19T10:27:15.988Z,14544
2018-05-19T10:28:16.432Z,14032
2018-05-19T10:29:16.298Z,14400
2018-05-19T10:30:16.043Z,14480
2018-05-19T10:32:16.361Z,14584
2018-05-19T10:33:16.441Z,14628
2018-05-19T10:34:30.856Z,14248
2018-05-19T10:35:16.307Z,14616
2018-05-19T10:36:16.492Z,14736
2018-05-19T10:37:16.513Z,13928
2018-05-19T10:38:16.323Z,14136
2018-05-19T10:39:16.586Z,14300
2018-05-19T10:40:31.295Z,14228
2018-05-19T10:41:16.644Z,14276
2018-05-19T10:42:16.717Z,14328
2018-05-19T10:43:16.427Z,14700
2018-05-19T10:44:16.734Z,14364
2018-05-19T10:45:16.502Z,14384
2018-05-19T10:46:16.555Z,14424
2018-05-19T10:47:31.499Z,14248
2018-05-19T10:48:16.839Z,13784
2018-05-19T10:49:16.909Z,13440
2018-05-19T10:50:16.895Z,13304
2018-05-19T10:51:16.698Z,13620
2018-05-19T10:52:16.956Z,13708
2018-05-19T10:53:17.009Z,13752
2018-05-19T10:54:17.040Z,13676
2018-05-19T10:55:17.036Z,13556
2018-05-19T10:56:16.863Z,13712
2018-05-19T10:57:31.519Z,13688
2018-05-19T10:59:16.931Z,13672
2018-05-19T11:00:16.661Z,13588
2018-05-19T11:02:17.244Z,13476
2018-05-19T11:03:31.956Z,13400
2018-05-19T11:04:17.342Z,13216
2018-05-19T11:05:16.817Z,13176
2018-05-19T11:06:17.367Z,13120
2018-05-19T11:07:17.119Z,13248
2018-05-19T11:08:31.836Z,13336
2018-05-19T11:09:16.922Z,13188
2018-05-19T11:10:16.980Z,13004
2018-05-19T11:11:17.510Z,12760
2018-05-19T11:12:32.213Z,12376
2018-05-19T11:13:17.552Z,12480
2018-05-19T11:14:17.585Z,12192
2018-05-19T11:15:17.370Z,12000
2018-05-19T11:16:17.665Z,12236
2018-05-19T11:17:17.447Z,12248
2018-05-19T11:18:17.441Z,12228
2018-05-19T11:19:17.837Z,12136
2018-05-19T11:20:17.787Z,12072
2018-05-19T11:21:17.797Z,11924
2018-05-19T11:22:17.847Z,11832
2018-05-19T11:23:17.574Z,11644
2018-05-19T11:24:17.889Z,11724
2018-05-19T11:25:17.717Z,11736
2018-05-19T11:26:18.027Z,11596
2018-05-19T11:27:17.997Z,11528
2018-05-19T11:28:32.375Z,11392
2018-05-19T11:29:32.431Z,11364
2018-05-19T11:30:17.770Z,11300
2018-05-19T11:31:18.066Z,11232
2018-05-19T11:32:18.123Z,11156
2018-05-19T11:33:18.141Z,11108
2018-05-19T11:34:17.922Z,10972
2018-05-19T11:35:32.830Z,10896
2018-05-19T11:36:18.243Z,10812
2018-05-19T11:37:17.967Z,10732
2018-05-19T11:38:18.295Z,10688
2018-05-19T11:39:18.281Z,10648
2018-05-19T11:40:18.360Z,10596
2018-05-19T11:41:18.100Z,10544
2018-05-19T11:42:33.126Z,10512
2018-05-19T11:43:18.410Z,10496
2018-05-19T11:44:33.079Z,10452
2018-05-19T11:46:18.481Z,10396
2018-05-19T11:47:18.283Z,10368
2018-05-19T11:48:18.558Z,10340
2018-05-19T11:49:18.311Z,10304
2018-05-19T11:50:33.284Z,10256
2018-05-19T11:51:18.662Z,10208
2018-05-19T11:52:18.655Z,10208
2018-05-19T11:54:18.705Z,10108
2018-05-19T11:55:18.766Z,10096
2018-05-19T11:56:18.495Z,10028
2018-05-19T11:57:18.566Z,10032
2018-05-19T11:58:18.845Z,9964
2018-05-19T11:59:18.870Z,9960
2018-05-19T12:00:33.272Z,10024
2018-05-19T12:01:18.722Z,9980
2018-05-19T12:02:18.935Z,10072
2018-05-19T12:03:33.642Z,10008
2018-05-19T12:04:18.742Z,9908
2018-05-19T12:05:33.685Z,9952
2018-05-19T12:06:33.456Z,10052
2018-05-19T12:07:18.832Z,10044
2018-05-19T12:08:19.226Z,10024
2018-05-19T12:09:19.123Z,9980
2018-05-19T12:10:18.660Z,9928
2018-05-19T12:11:18.918Z,9864
2018-05-19T12:12:19.348Z,9820
2018-05-19T12:13:18.976Z,9728
2018-05-19T12:14:19.036Z,9704
2018-05-19T12:15:33.960Z,9608
2018-05-19T12:17:19.362Z,9468
2018-05-19T12:18:19.426Z,9420
2018-05-19T12:19:33.808Z,9312
2018-05-19T12:20:19.219Z,9260
2018-05-19T12:21:34.116Z,9168
2018-05-19T12:22:19.486Z,9112
2018-05-19T12:24:19.555Z,8968
2018-05-19T12:25:19.611Z,8900
2018-05-19T12:26:19.074Z,8840
2018-05-19T12:29:19.417Z,8508
2018-05-19T12:30:19.201Z,8316
2018-05-19T12:31:19.767Z,8440
2018-05-19T12:32:19.539Z,8464
2018-05-19T12:33:19.793Z,8376
2018-05-19T12:34:19.837Z,8288
2018-05-19T12:35:19.929Z,8208
2018-05-19T12:36:34.567Z,8060
2018-05-19T12:37:19.635Z,8068
2018-05-19T12:38:19.986Z,7908
2018-05-19T12:39:19.983Z,7788
2018-05-19T12:40:20.010Z,7688
2018-05-19T12:41:19.750Z,7732
2018-05-19T12:42:20.123Z,7648
2018-05-19T12:44:20.113Z,7568
2018-05-19T12:45:19.856Z,7628
2018-05-19T12:46:19.664Z,7476
2018-05-19T12:47:34.926Z,7536
2018-05-19T12:48:20.242Z,7520
2018-05-19T12:49:20.249Z,7596
2018-05-19T12:50:20.017Z,7616
2018-05-19T12:51:20.025Z,7588
2018-05-19T12:52:19.789Z,7536
2018-05-19T12:53:20.364Z,7520
2018-05-19T12:54:35.040Z,7504
2018-05-19T12:55:35.079Z,7484
2018-05-19T12:56:20.428Z,7452
2018-05-19T12:57:20.495Z,7336
2018-05-19T12:58:20.211Z,7204
2018-05-19T12:59:20.252Z,6988
2018-05-19T13:00:20.273Z,6808
2018-05-19T13:01:20.329Z,6768
2018-05-19T13:02:20.622Z,7072
2018-05-19T13:03:35.497Z,7200
2018-05-19T13:05:20.141Z,7204
2018-05-19T13:06:35.361Z,7236
2018-05-19T13:08:35.414Z,7268
2018-05-19T13:09:20.791Z,7284
2018-05-19T13:11:20.835Z,7248
2018-05-19T13:12:20.895Z,7228
2018-05-19T13:13:35.575Z,7200
2018-05-19T13:14:20.903Z,7220
2018-05-19T13:15:20.953Z,7212
2018-05-19T13:16:20.951Z,7084
2018-05-19T13:17:20.761Z,6824
2018-05-19T13:18:20.756Z,6756
2018-05-19T13:19:35.730Z,6740
2018-05-19T13:20:21.088Z,6608
2018-05-19T13:21:21.210Z,6680
2018-05-19T13:22:21.121Z,6576
2018-05-19T13:23:20.894Z,6640
2018-05-19T13:24:20.672Z,6516
2018-05-19T13:25:21.240Z,6404
2018-05-19T13:26:21.271Z,6200
2018-05-19T13:27:21.257Z,6268
2018-05-19T13:28:21.038Z,6044
2018-05-19T13:29:35.706Z,5984
2018-05-19T13:30:35.484Z,5892
2018-05-19T13:31:21.367Z,5948
2018-05-19T13:32:35.809Z,6032
2018-05-19T13:33:21.457Z,6008
2018-05-19T13:34:21.179Z,6044
2018-05-19T13:35:36.149Z,6196
2018-05-19T13:36:21.246Z,6268
2018-05-19T13:37:21.535Z,6228
2018-05-19T13:38:35.710Z,6032
2018-05-19T13:39:21.308Z,6064
2018-05-19T13:40:21.609Z,6104
2018-05-19T13:41:21.173Z,6176
2018-05-19T13:42:21.419Z,6232
2018-05-19T13:43:21.725Z,6296
2018-05-19T13:44:21.709Z,6420
2018-05-19T13:45:21.494Z,6432
2018-05-19T13:46:21.234Z,6424
2018-05-19T13:47:21.874Z,6456
2018-05-19T13:48:21.811Z,6472
2018-05-19T13:49:21.860Z,6460
2018-05-19T13:50:51.187Z,6548
2018-05-19T13:51:21.657Z,6580
2018-05-19T13:52:22.194Z,6636
2018-05-19T13:53:21.727Z,6672
2018-05-19T13:54:21.708Z,6716
2018-05-19T13:55:21.763Z,6748
2018-05-19T13:56:21.760Z,6768
2018-05-19T13:57:21.828Z,6768
2018-05-19T13:58:21.820Z,6772
2018-05-19T13:59:22.140Z,6772
2018-05-19T14:00:36.801Z,6768
2018-05-19T14:01:21.656Z,6764
2018-05-19T14:02:22.195Z,6756
2018-05-19T14:03:22.244Z,6756
2018-05-19T14:04:22.247Z,6756